Shawnee, Pennsylvania
Current Conditions -  °F | °C
As of 9:33 AM on Monday 26 Jan 2015 (Local Time) from KMPO Reporting Station
Light Snow Light Snow  
Wind Chill: -5°   Ceiling: 1500
Heat Index: 11°   Visibility: 2mi
Dew Point:   Wind: 14mph
Humidity: 84%   Direction: 100°E
Pressure: 29.83"   Gusts: 21mph
Location:  41.0124°N, 75.1113°W
Report Text: KMPO 261433Z AUTO 10012G18KT 2SM -SN BR BKN015 OVC031 M12/M14 A2983 RMK AO2 UPB15E17SNB17 P0000 T11171139
Loading
Personal Weather Stations






























Interactive Weather Map New forecast layout! Learn more

10-Day Weather Forecast

Advertisements
Track Severe Weather on mobile